Latest Weather Observations for Goulburn Airport

IDN60901

Issued at 7:51 pm EST Sunday 26 June 2016 (issued every 10 minutes, with the page automatically refreshed every 10 minutes)

About weather observations | Map of Canberra area stations | Latest observations for Canberra area | Other Formats
Station Details ID: 070330 Name: GOULBURN AIRPORT AWS Lat: -34.81 Lon: 149.73 Height: 640.0 m
Data from the previous 72 hours. | See also: Recent months at Goulburn Airport
Date/Time
EST
Temp
°C
App
Temp
°C
Dew
Point
°C
Rel
Hum
%
Delta-T
°C
Wind Press
QNH
hPa
Press
MSL
hPa
Rain since
9am
mm
Dir  Spd
km/h
Gust
km/h
Spd
kts
Gust
kts
26/07:30pm 3.6 1.9 2.1 90 0.6 CALM 0 0 0 0 1016.6 1017.4 0.0
26/07:00pm 3.7 1.7 2.2 90 0.6 NW 2 6 1 3 1016.4 1017.3 0.0
26/06:30pm 4.0 2.4 2.4 89 0.7 CALM 0 0 0 0 1016.6 1017.4 0.0
26/06:00pm 4.1 1.4 2.5 89 0.7 SSE 6 7 3 4 1016.2 1017.0 0.0
26/05:30pm 4.6 1.6 2.3 85 1.0 WSW 7 9 4 5 1016.1 1016.9 0.0
26/05:00pm 5.6 3.0 3.1 84 1.1 S 6 7 3 4 1015.7 1016.5 0.0
26/04:30pm 6.4 3.2 2.9 78 1.5 SSW 9 11 5 6 1015.9 1016.7 0.0
26/04:00pm 7.3 5.7 2.6 72 2.0 CALM 0 0 0 0 1016.1 1016.9 0.0
26/03:30pm 7.7 5.9 1.5 65 2.6 CALM 0 6 0 3 1016.2 1017.0 0.0
26/03:00pm 7.9 4.9 1.7 65 2.6 SSE 7 9 4 5 1016.1 1016.9 0.0
26/02:30pm 7.8 5.3 1.6 65 2.6 N 4 7 2 4 1016.7 1017.5 0.0
26/02:00pm 7.6 4.7 1.5 65 2.6 NW 6 11 3 6 1017.2 1018.0 0.0
26/01:30pm 7.5 5.0 1.4 65 2.6 S 4 7 2 4 1017.3 1018.1 0.0
26/01:00pm 7.1 4.0 1.4 67 2.4 SSW 7 9 4 5 1017.6 1018.4 0.0
26/12:30pm 6.7 4.9 1.2 68 2.3 CALM 0 0 0 0 1018.0 1018.9 0.0
26/12:00pm 6.5 4.4 1.4 70 2.1 NNW 2 7 1 4 1018.5 1019.3 0.0
26/11:30am 6.0 3.4 1.2 71 2.0 W 4 7 2 4 1019.5 1020.4 0.0
26/11:00am 5.1 2.1 0.9 74 1.7 NW 6 9 3 5 1020.0 1020.8 0.0
26/10:30am 4.0 0.8 1.0 81 1.2 NW 7 11 4 6 1020.5 1021.4 0.0
26/10:00am 3.1 0.1 1.0 86 0.8 N 6 7 3 4 1020.6 1021.5 0.0
26/09:30am 2.1 -0.9 0.8 91 0.5 NNE 6 7 3 4 1020.8 1021.7 0.0
26/09:00am 0.1 -3.1 -0.6 95 0.3 NNE 6 7 3 4 1020.6 1021.5 0.0
26/08:30am -0.8 -4.3 -1.4 96 0.2 NNW 7 9 4 5 1020.8 1021.7 0.0
26/08:00am -2.1 -6.1 -2.6 96 0.1 N 9 11 5 6 1020.6 1021.5 0.0
26/07:30am -3.3 -6.6 -4.0 95 0.1 N 4 9 2 5 1020.8 1021.7 0.0
26/07:00am -3.5 -6.4 -4.2 95 0.1 NNW 2 7 1 4 1020.4 1021.3 0.0
26/06:30am -3.1 -5.9 -3.6 96 0.0 NNW 2 6 1 3 1020.5 1021.4 0.0
26/06:25am -3.2 -6.4 -3.7 96 0.0 NNW 4 7 2 4 1020.5 1021.4 0.0
26/06:00am -3.0 -6.6 -3.4 97 0.0 NW 6 9 3 5 1020.2 1021.0 0.0
26/05:30am -1.9 -5.5 -2.3 97 0.1 N 7 9 4 5 1019.7 1020.6 0.0
26/05:00am -1.6 -5.6 -2.0 97 0.1 NNW 9 13 5 7 1019.9 1020.7 0.0
26/04:30am -1.4 -5.3 -1.8 97 0.1 NNW 9 13 5 7 1020.0 1020.8 0.0
26/04:14am -2.4 -5.9 -3.1 95 0.1 NNW 6 7 3 4 1019.9 1020.7 0.0
26/04:00am -2.7 -6.8 -3.4 95 0.1 N 9 9 5 5 1019.7 1020.6 0.0
26/03:30am -2.6 -6.7 -3.3 95 0.1 N 9 13 5 7 1020.0 1020.8 0.0
26/03:00am -2.6 -6.7 -3.4 94 0.2 N 9 11 5 6 1019.7 1020.6 0.0
26/02:30am -2.0 -5.7 -2.7 95 0.2 N 7 9 4 5 1020.3 1021.1 0.0
26/02:00am -1.8 -5.9 -2.8 93 0.3 N 9 11 5 6 1020.6 1021.5 0.0
26/01:30am -1.3 -4.7 -2.0 95 0.2 N 6 7 3 4 1020.7 1021.6 0.0
26/01:00am -1.9 -6.0 -2.7 94 0.2 N 9 13 5 7 1020.8 1021.7 0.0
26/12:30am -1.8 -5.8 -2.6 94 0.2 NNW 9 11 5 6 1020.6 1021.5 0.0
26/12:00am -1.2 -6.0 -2.2 93 0.3 NNW 13 15 7 8 1020.9 1021.8 0.0
 
Date/Time
EST
Temp
°C
App
Temp
°C
Dew
Point
°C
Rel
Hum
%
Delta-T
°C
Wind Press
QNH
hPa
Press
MSL
hPa
Rain since
9am
mm
Dir  Spd
km/h
Gust
km/h
Spd
kts
Gust
kts
25/11:30pm -1.6 -5.6 -2.6 93 0.3 N 9 15 5 8 1020.8 1021.7 0.0
25/11:00pm -1.5 -3.8 -2.5 93 0.3 CALM 0 0 0 0 1020.7 1021.6 0.0
25/10:30pm -1.6 -5.3 -2.7 92 0.3 N 7 9 4 5 1020.5 1021.4 0.0
25/10:00pm -0.4 -4.7 -1.4 93 0.3 NNW 11 11 6 6 1020.6 1021.5 0.0
25/09:30pm -0.5 -4.5 -1.9 90 0.5 NNW 9 13 5 7 1020.6 1021.5 0.0
25/09:00pm 0.6 -3.2 -1.0 89 0.6 NNW 9 11 5 6 1020.4 1021.3 0.0
25/08:30pm 1.0 -2.5 -1.4 84 0.9 NNW 7 9 4 5 1020.4 1021.3 0.0
25/08:00pm 1.4 -2.4 -0.8 85 0.8 NW 9 11 5 6 1020.4 1021.3 0.0
25/07:30pm 1.7 -1.6 -0.9 83 1.0 N 6 9 3 5 1020.4 1021.3 0.0
25/07:00pm 1.0 -2.5 -1.6 83 0.9 NNW 7 9 4 5 1020.2 1021.0 0.0
25/06:30pm 2.2 -2.8 -0.9 80 1.2 W 15 20 8 11 1019.9 1020.7 0.0
25/06:00pm 3.2 -2.5 -0.4 77 1.4 WNW 19 22 10 12 1019.6 1020.5 0.0
25/05:30pm 3.4 -1.9 -0.8 74 1.6 WNW 17 22 9 12 1019.2 1020.1 0.0
25/05:00pm 4.3 -1.4 -0.9 69 2.0 WNW 19 24 10 13 1018.9 1019.7 0.0
25/04:30pm 5.7 -1.0 -0.8 63 2.5 WNW 24 30 13 16 1018.9 1019.7 0.0
25/04:00pm 6.3 -0.6 0.0 64 2.5 WNW 26 33 14 18 1018.8 1019.6 0.0
25/03:30pm 6.7 -0.2 0.2 63 2.6 WNW 26 32 14 17 1018.6 1019.4 0.0
25/03:00pm 7.1 0.5 -0.1 60 2.9 WNW 24 32 13 17 1018.6 1019.4 0.0
25/02:30pm 6.9 -0.4 -0.1 61 2.8 W 28 35 15 19 1018.4 1019.2 0.0
25/02:00pm 7.1 0.5 -0.6 58 3.1 W 24 32 13 17 1018.3 1019.1 0.0
25/01:30pm 7.1 0.5 -0.6 58 3.1 W 24 33 13 18 1018.1 1019.0 0.0
25/01:00pm 7.0 0.6 -1.4 55 3.3 W 22 32 12 17 1018.3 1019.1 0.0
25/12:30pm 6.7 0.0 -1.0 58 3.0 W 24 32 13 17 1018.4 1019.2 0.0
25/12:00pm 6.3 -0.3 -0.4 62 2.7 W 24 32 13 17 1018.6 1019.4 0.0
25/11:30am 5.5 -0.7 -0.3 66 2.3 W 22 30 12 16 1018.9 1019.7 0.0
25/11:00am 4.9 -1.3 -0.5 68 2.1 W 22 30 12 16 1019.0 1019.9 0.0
25/10:30am 3.9 -2.4 -1.1 70 1.9 WNW 22 28 12 15 1019.1 1020.0 0.0
25/10:00am 3.3 -2.5 -0.2 78 1.4 WNW 20 28 11 15 1019.1 1020.0 0.0
25/09:30am 2.2 -4.1 -0.9 80 1.2 WNW 22 28 12 15 1018.9 1019.7 0.0
25/09:00am 1.9 -4.0 -0.8 82 1.0 WNW 20 26 11 14 1018.6 1019.4 0.4
25/08:50am 1.5 -4.4 -0.9 84 0.9 WNW 20 28 11 15 1018.5 1019.3 0.4
25/08:30am 0.8 -3.5 -1.3 86 0.8 WNW 11 19 6 10 1018.5 1019.3 0.4
25/08:27am 0.8 -3.0 -1.1 87 0.7 WNW 9 17 5 9 1018.5 1019.3 0.4
25/08:00am 0.3 -5.5 -1.6 87 0.7 WNW 19 24 10 13 1017.8 1018.7 0.4
25/07:30am -0.1 -6.1 -1.8 88 0.6 WNW 20 26 11 14 1017.7 1018.6 0.4
25/07:00am 0.1 -7.0 -1.6 88 0.6 W 26 37 14 20 1017.0 1017.8 0.4
25/06:30am 0.1 -7.8 -1.8 87 0.7 W 30 39 16 21 1016.6 1017.4 0.4
25/06:00am 0.4 -7.1 -1.5 87 0.7 W 28 37 15 20 1016.2 1017.0 0.4
25/05:30am 0.5 -7.8 -1.6 86 0.8 WNW 32 39 17 21 1015.9 1016.7 0.4
25/05:00am 0.6 -7.7 -1.6 85 0.8 W 32 43 17 23 1015.5 1016.3 0.4
25/04:30am 0.8 -7.6 -1.4 85 0.8 WNW 33 44 18 24 1015.2 1016.0 0.4
25/04:28am 0.7 -7.6 -1.5 85 0.8 WNW 32 44 17 24 1015.2 1016.0 0.4
25/04:00am 1.2 -5.5 -1.2 84 0.9 WNW 24 28 13 15 1015.2 1016.0 0.4
25/03:30am 1.3 -5.8 -1.3 83 1.0 WNW 26 37 14 20 1014.9 1015.6 0.4
25/03:17am 1.3 -6.2 -1.3 83 1.0 WNW 28 39 15 21 1014.9 1015.6 0.4
25/03:00am 1.3 -6.9 -1.3 83 1.0 W 32 44 17 24 1014.5 1015.3 0.4
25/02:32am 1.6 -6.6 -1.0 83 1.0 W 32 43 17 23 1014.2 1015.0 0.4
25/02:30am 1.5 -6.7 -1.1 83 1.0 W 32 43 17 23 1014.2 1015.0 0.4
25/02:13am 1.7 -6.7 -0.9 83 1.0 W 33 48 18 26 1014.0 1014.8 0.4
25/02:00am 1.9 -5.9 -0.7 83 1.0 W 30 43 16 23 1013.8 1014.6 0.4
25/01:30am 2.2 -6.2 -0.9 80 1.2 W 33 46 18 25 1013.7 1014.5 0.4
25/01:00am 2.1 -6.3 -1.0 80 1.2 W 33 43 18 23 1013.0 1013.8 0.4
25/12:31am 2.1 -6.7 -1.2 79 1.2 W 35 54 19 29 1013.0 1013.8 0.4
25/12:30am 2.2 -7.0 -1.2 78 1.3 W 37 54 20 29 1013.0 1013.8 0.4
25/12:00am 1.9 -6.3 -1.0 81 1.1 W 32 43 17 23 1012.7 1013.5 0.4
 
Date/Time
EST
Temp
°C
App
Temp
°C
Dew
Point
°C
Rel
Hum
%
Delta-T
°C
Wind Press
QNH
hPa
Press
MSL
hPa
Rain since
9am
mm
Dir  Spd
km/h
Gust
km/h
Spd
kts
Gust
kts
24/11:30pm 2.1 -7.8 -0.6 82 1.0 WNW 41 52 22 28 1012.4 1013.2 0.4
24/11:00pm 2.4 -7.1 -0.7 80 1.2 WNW 39 52 21 28 1011.9 1012.6 0.4
24/10:30pm 2.7 -6.0 -0.4 80 1.2 WNW 35 48 19 26 1011.8 1012.5 0.4
24/10:00pm 2.8 -7.4 0.0 82 1.1 WNW 43 57 23 31 1011.4 1012.2 0.4
24/09:33pm 2.9 -6.9 -0.4 79 1.3 W 41 59 22 32 1010.9 1011.6 0.4
24/09:30pm 2.9 -6.5 -0.2 80 1.2 W 39 52 21 28 1010.9 1011.6 0.4
24/09:01pm 3.1 -7.1 -0.2 79 1.3 W 43 63 23 34 1010.3 1011.0 0.2
24/09:00pm 3.1 -6.7 0.0 80 1.2 W 41 57 22 31 1010.4 1011.1 0.2
24/08:57pm 3.1 -6.3 0.2 81 1.1 W 39 57 21 31 1010.4 1011.1 0.2
24/08:30pm 2.8 -6.2 0.4 84 0.9 W 37 52 20 28 1009.9 1010.6 0.2
24/08:20pm 2.9 -5.7 0.3 83 1.0 W 35 48 19 26 1009.7 1010.5 0.2
24/08:00pm 2.7 -5.3 0.4 85 0.9 W 32 41 17 22 1009.7 1010.5 0.2
24/07:30pm 3.0 -2.7 0.6 84 0.9 WNW 20 28 11 15 1009.9 1010.6 0.2
24/07:09pm 3.1 -4.9 0.2 81 1.1 WNW 32 43 17 23 1009.4 1010.1 0.2
24/07:00pm 3.1 -5.1 0.5 83 1.0 W 33 46 18 25 1009.3 1010.0 0.2
24/06:51pm 3.1 -5.9 0.2 81 1.1 W 37 46 20 25 1009.1 1009.8 0.2
24/06:30pm 3.2 -5.4 0.4 82 1.1 W 35 48 19 26 1008.7 1009.4 0.2
24/06:00pm 3.1 -4.5 0.7 84 1.0 W 30 41 16 22 1008.0 1008.7 0.2
24/05:30pm 3.1 -5.4 1.0 86 0.8 W 35 52 19 28 1006.8 1007.4 0.2
24/05:00pm 3.1 -5.4 1.0 86 0.8 W 35 54 19 29 1005.8 1006.5 0.2
24/04:49pm 3.0 -5.5 1.2 88 0.7 WNW 35 54 19 29 1005.4 1006.0 0.2
24/04:30pm 3.5 -4.9 1.4 86 0.9 WNW 35 50 19 27 1005.1 1005.7 0.2
24/04:00pm 3.7 -4.6 2.1 89 0.7 WNW 35 50 19 27 1004.7 1005.4 0.2
24/03:30pm 3.7 -4.3 1.7 87 0.8 WNW 33 43 18 23 1004.4 1005.1 0.2
24/03:13pm 3.8 -4.6 1.7 86 0.9 WNW 35 50 19 27 1004.1 1004.7 0.2
24/03:00pm 4.4 -5.1 1.9 84 1.0 WNW 41 54 22 29 1003.9 1004.5 0.2
24/02:30pm 4.6 -4.5 1.6 81 1.2 WNW 39 50 21 27 1003.7 1004.3 0.2
24/02:00pm 5.0 -5.8 1.7 79 1.4 W 48 63 26 34 1003.3 1003.9 0.2
24/01:35pm 5.9 -4.7 1.1 71 2.0 W 46 65 25 35 1003.0 1003.6 0.2
24/01:30pm 5.8 -5.6 0.6 69 2.1 WNW 50 65 27 35 1003.0 1003.6 0.2
24/01:01pm 6.4 -5.3 1.1 69 2.2 WNW 52 74 28 40 1002.9 1003.5 0.2
24/01:00pm 6.7 -4.4 2.2 73 1.9 WNW 50 65 27 35 1003.0 1003.6 0.2
24/12:30pm 6.2 -3.7 2.8 79 1.5 WNW 44 65 24 35 1003.3 1003.9 0.2
24/12:07pm 4.8 -6.0 2.0 82 1.2 WNW 48 74 26 40 1003.6 1004.2 0.2
24/12:00pm 6.2 -4.1 2.5 77 1.6 WNW 46 61 25 33 1003.5 1004.1 0.0
24/11:37am 6.1 -4.3 2.0 75 1.7 WNW 46 67 25 36 1003.7 1004.3 0.0
24/11:30am 6.4 -3.8 3.0 79 1.5 WNW 46 59 25 32 1003.9 1004.5 0.0
24/11:00am 6.7 -3.0 3.0 77 1.6 WNW 43 61 23 33 1003.9 1004.5 0.0
24/10:40am 4.9 -4.8 2.6 85 1.0 W 43 63 23 34 1004.5 1005.2 0.0
24/10:30am 4.9 -5.1 2.4 84 1.1 W 44 61 24 33 1004.6 1005.3 0.0
24/10:17am 5.3 -4.6 2.8 84 1.1 WNW 44 59 24 32 1004.4 1005.1 0.0
24/10:00am 6.6 -3.3 3.0 78 1.6 WNW 44 65 24 35 1004.4 1005.1 0.0
24/09:39am 6.1 -1.7 3.1 81 1.3 WNW 33 54 18 29 1004.4 1005.1 0.0
24/09:30am 6.0 -1.6 3.8 86 1.0 WNW 33 48 18 26 1004.5 1005.2 0.0
24/09:00am 5.4 -3.5 2.8 83 1.1 WNW 39 52 21 28 1004.4 1005.1 5.8
24/08:30am 5.0 -2.7 3.2 88 0.8 W 33 48 18 26 1004.4 1005.1 5.8
24/08:06am 5.1 -2.1 3.1 87 0.9 W 30 43 16 23 1004.0 1004.6 5.8
24/08:00am 5.0 -2.1 3.3 89 0.7 W 30 41 16 22 1003.9 1004.5 5.8
24/07:30am 4.9 -0.7 3.2 89 0.7 W 22 33 12 18 1003.5 1004.1 5.8
24/07:16am 5.1 -2.4 3.4 89 0.7 W 32 43 17 23 1003.4 1004.0 5.8
24/07:00am 5.1 -3.0 3.4 89 0.7 W 35 46 19 25 1003.1 1003.8 5.8
24/06:30am 6.1 0.4 4.9 92 0.5 WNW 24 33 13 18 1002.8 1003.4 5.2
24/06:00am 6.7 -1.0 5.3 91 0.6 WNW 35 44 19 24 1002.2 1002.8 4.6
24/05:44am 7.0 0.7 5.8 92 0.6 WNW 28 39 15 21 1002.0 1002.6 4.6
24/05:41am 7.1 1.2 5.7 91 0.7 WNW 26 39 14 21 1002.0 1002.6 4.4
24/05:30am 7.2 1.7 5.8 91 0.7 WNW 24 32 13 17 1002.0 1002.6 3.8
24/05:29am 7.2 1.7 5.8 91 0.7 NW 24 33 13 18 1001.9 1002.5 3.6
24/05:00am 7.3 2.5 5.6 89 0.8 NW 20 28 11 15 1001.8 1002.4 2.4
24/04:46am 7.3 1.7 5.4 88 0.9 NW 24 35 13 19 1002.0 1002.6 2.4
24/04:30am 7.4 1.0 5.4 87 0.9 NW 28 35 15 19 1002.2 1002.8 2.2
24/04:11am 7.4 1.5 5.7 89 0.8 NW 26 39 14 21 1002.3 1002.9 2.2
24/04:00am 7.5 1.6 5.6 88 0.9 WNW 26 35 14 19 1002.4 1003.0 2.0
24/03:36am 7.6 2.0 5.6 87 0.9 NW 24 35 13 19 1002.5 1003.1 1.8
24/03:30am 7.4 1.4 5.4 87 0.9 NW 26 35 14 19 1002.5 1003.1 1.8
24/03:00am 7.4 1.9 5.9 90 0.7 NW 24 30 13 16 1002.8 1003.4 1.8
24/02:47am 7.2 1.3 5.7 90 0.7 NW 26 35 14 19 1002.8 1003.4 1.8
24/02:30am 7.0 0.2 5.0 87 0.9 WNW 30 41 16 22 1003.1 1003.8 1.8
24/02:10am 7.0 -1.2 5.0 87 0.9 WNW 37 56 20 30 1003.1 1003.8 1.8
24/02:00am 7.3 -2.0 5.0 85 1.1 WNW 43 56 23 30 1003.0 1003.6 1.6
24/01:33am 7.9 -0.5 5.4 84 1.2 WNW 39 65 21 35 1002.9 1003.5 0.2
24/01:30am 7.9 -0.1 5.5 85 1.1 WNW 37 50 20 27 1002.8 1003.4 0.0
24/01:00am 8.2 0.5 5.5 83 1.3 NW 35 48 19 26 1002.4 1003.0 0.0
24/12:30am 8.3 -1.1 5.4 82 1.4 WNW 44 57 24 31 1002.7 1003.3 0.0
24/12:00am 8.4 -0.3 5.9 84 1.2 WNW 41 59 22 32 1003.0 1003.6 0.0
 
Date/Time
EST
Temp
°C
App
Temp
°C
Dew
Point
°C
Rel
Hum
%
Delta-T
°C
Wind Press
QNH
hPa
Press
MSL
hPa
Rain since
9am
mm
Dir  Spd
km/h
Gust
km/h
Spd
kts
Gust
kts
23/11:57pm 8.4 -0.3 6.0 85 1.1 NW 41 59 22 32 1003.0 1003.6 0.0
23/11:41pm 8.8 -0.5 5.9 82 1.4 WNW 44 63 24 34 1003.0 1003.6 0.0
23/11:30pm 8.9 -0.6 6.5 85 1.2 NW 46 61 25 33 1003.1 1003.8 0.0
23/11:00pm 9.5 2.2 7.3 86 1.1 NW 35 50 19 27 1003.0 1003.6 0.0
23/10:30pm 10.1 4.5 7.3 83 1.4 NW 26 33 14 18 1003.1 1003.8 0.0
23/10:00pm 10.1 4.1 7.2 82 1.4 NNW 28 41 15 22 1003.3 1003.9 0.0
23/09:30pm 9.9 3.8 6.8 81 1.5 NW 28 37 15 20 1003.6 1004.2 0.0
23/09:00pm 9.7 4.0 6.6 81 1.5 NNW 26 37 14 20 1003.8 1004.4 0.0
23/08:30pm 9.4 3.3 6.5 82 1.4 NW 28 41 15 22 1004.1 1004.7 0.0
23/08:00pm 9.0 3.5 6.1 82 1.4 NNW 24 33 13 18 1004.6 1005.3 0.0
23/07:54pm 9.1 4.0 6.2 82 1.4 NW 22 30 12 16 1004.7 1005.4 0.0

Latest Capital City Observations: Canberra | Sydney | Melbourne | Brisbane | Adelaide | Perth | Hobart | Darwin

Other Formats:

Comma delimited format used in spreadsheet applications
http://www.bom.gov.au/fwo/IDN60903/IDN60903.95716.axf

JavaScript Object Notation format (JSON) in row-major order
http://www.bom.gov.au/fwo/IDN60903/IDN60903.95716.json